sensor_id;sensor_type;location;lat;lon;timestamp;pressure;altitude;pressure_sealevel;temperature;humidity
64023;BME280;50264;52.088;5.296;2023-03-22T00:01:22;100886.0;;;10.13;87.94
64023;BME280;50264;52.088;5.296;2023-03-22T00:02:59;100883.0;;;9.92;88.62
64023;BME280;50264;52.088;5.296;2023-03-22T00:06:11;100876.0;;;9.85;89.35
64023;BME280;50264;52.088;5.296;2023-03-22T00:07:48;100882.0;;;9.77;89.15
64023;BME280;50264;52.088;5.296;2023-03-22T00:09:24;100878.0;;;9.58;90.46
64023;BME280;50264;52.088;5.296;2023-03-22T00:12:37;100872.0;;;9.6;90.29
64023;BME280;50264;52.088;5.296;2023-03-22T00:14:14;100872.0;;;9.48;90.91
64023;BME280;50264;52.088;5.296;2023-03-22T00:15:50;100871.0;;;9.64;89.84
64023;BME280;50264;52.088;5.296;2023-03-22T00:19:02;100865.0;;;9.35;91.22
64023;BME280;50264;52.088;5.296;2023-03-22T00:20:45;100862.0;;;9.46;90.87
64023;BME280;50264;52.088;5.296;2023-03-22T00:22:23;100855.0;;;9.41;91.39
64023;BME280;50264;52.088;5.296;2023-03-22T00:23:59;100853.0;;;9.48;91.38
64023;BME280;50264;52.088;5.296;2023-03-22T00:27:12;100849.0;;;9.4;91.09
64023;BME280;50264;52.088;5.296;2023-03-22T00:28:48;100853.0;;;9.42;91.51
64023;BME280;50264;52.088;5.296;2023-03-22T00:30:24;100860.0;;;9.27;91.29
64023;BME280;50264;52.088;5.296;2023-03-22T00:33:37;100855.0;;;9.3;91.23
64023;BME280;50264;52.088;5.296;2023-03-22T00:35:13;100853.0;;;9.17;92.18
64023;BME280;50264;52.088;5.296;2023-03-22T00:36:50;100850.0;;;9.31;92.12
64023;BME280;50264;52.088;5.296;2023-03-22T00:40:04;100849.0;;;9.41;91.68
64023;BME280;50264;52.088;5.296;2023-03-22T00:41:41;100853.0;;;9.5;90.57
64023;BME280;50264;52.088;5.296;2023-03-22T00:43:17;100851.0;;;9.25;90.89
64023;BME280;50264;52.088;5.296;2023-03-22T00:44:53;100849.0;;;9.0;92.4
64023;BME280;50264;52.088;5.296;2023-03-22T00:48:06;100844.0;;;9.07;92.08
64023;BME280;50264;52.088;5.296;2023-03-22T00:49:43;100842.0;;;8.92;92.41
64023;BME280;50264;52.088;5.296;2023-03-22T00:51:19;100833.0;;;8.96;92.94
64023;BME280;50264;52.088;5.296;2023-03-22T00:54:31;100830.0;;;9.02;92.73
64023;BME280;50264;52.088;5.296;2023-03-22T00:56:08;100828.0;;;8.8;92.66
64023;BME280;50264;52.088;5.296;2023-03-22T00:57:44;100827.0;;;8.73;93.41
64023;BME280;50264;52.088;5.296;2023-03-22T01:00:57;100826.0;;;8.84;93.48
64023;BME280;50264;52.088;5.296;2023-03-22T01:02:33;100818.0;;;8.98;93.19
64023;BME280;50264;52.088;5.296;2023-03-22T01:04:09;100815.0;;;8.96;92.81
64023;BME280;50264;52.088;5.296;2023-03-22T01:05:47;100808.0;;;9.0;92.72
64023;BME280;50264;52.088;5.296;2023-03-22T01:08:59;100805.0;;;8.77;93.3
64023;BME280;50264;52.088;5.296;2023-03-22T01:10:38;100796.0;;;8.88;93.55
64023;BME280;50264;52.088;5.296;2023-03-22T01:12:15;100792.0;;;8.97;92.77
64023;BME280;50264;52.088;5.296;2023-03-22T01:15:31;100787.0;;;9.07;92.61
64023;BME280;50264;52.088;5.296;2023-03-22T01:17:09;100786.0;;;8.91;92.61
64023;BME280;50264;52.088;5.296;2023-03-22T01:18:45;100781.0;;;8.97;92.56
64023;BME280;50264;52.088;5.296;2023-03-22T01:20:22;100771.0;;;9.11;92.49
64023;BME280;50264;52.088;5.296;2023-03-22T01:23:36;100768.0;;;9.22;91.84
64023;BME280;50264;52.088;5.296;2023-03-22T01:25:12;100771.0;;;9.27;91.13
64023;BME280;50264;52.088;5.296;2023-03-22T01:26:50;100765.0;;;9.23;91.66
64023;BME280;50264;52.088;5.296;2023-03-22T01:30:02;100759.0;;;9.3;91.71
64023;BME280;50264;52.088;5.296;2023-03-22T01:31:39;100755.0;;;9.06;91.95
64023;BME280;50264;52.088;5.296;2023-03-22T01:33:16;100751.0;;;9.06;92.07
64023;BME280;50264;52.088;5.296;2023-03-22T01:36:29;100758.0;;;8.98;91.9
64023;BME280;50264;52.088;5.296;2023-03-22T01:38:06;100752.0;;;9.07;92.04
64023;BME280;50264;52.088;5.296;2023-03-22T01:39:42;100749.0;;;9.23;91.57
64023;BME280;50264;52.088;5.296;2023-03-22T01:41:18;100741.0;;;9.27;91.7
64023;BME280;50264;52.088;5.296;2023-03-22T01:44:31;100739.0;;;9.14;92.22
64023;BME280;50264;52.088;5.296;2023-03-22T01:46:07;100736.0;;;9.13;91.84
64023;BME280;50264;52.088;5.296;2023-03-22T01:47:46;100730.0;;;9.03;92.38
64023;BME280;50264;52.088;5.296;2023-03-22T01:51:09;100724.0;;;9.23;92.7
64023;BME280;50264;52.088;5.296;2023-03-22T01:52:48;100726.0;;;9.28;91.59
64023;BME280;50264;52.088;5.296;2023-03-22T01:54:29;100712.0;;;9.32;91.28
64023;BME280;50264;52.088;5.296;2023-03-22T01:56:09;100716.0;;;9.52;90.5
64023;BME280;50264;52.088;5.296;2023-03-22T01:59:26;100705.0;;;9.49;90.68
64023;BME280;50264;52.088;5.296;2023-03-22T02:01:04;100708.0;;;9.4;90.78
64023;BME280;50264;52.088;5.296;2023-03-22T02:02:42;100706.0;;;9.38;91.14
64023;BME280;50264;52.088;5.296;2023-03-22T02:04:20;100693.0;;;9.55;90.21
64023;BME280;50264;52.088;5.296;2023-03-22T02:07:35;100692.0;;;9.53;90.27
64023;BME280;50264;52.088;5.296;2023-03-22T02:09:14;100687.0;;;9.52;90.59
64023;BME280;50264;52.088;5.296;2023-03-22T02:10:50;100688.0;;;9.52;90.71
64023;BME280;50264;52.088;5.296;2023-03-22T02:14:24;100683.0;;;9.39;91.67
64023;BME280;50264;52.088;5.296;2023-03-22T02:16:28;100682.0;;;9.39;91.57
64023;BME280;50264;52.088;5.296;2023-03-22T02:18:25;100681.0;;;9.52;90.81
64023;BME280;50264;52.088;5.296;2023-03-22T02:22:08;100677.0;;;9.5;90.81
64023;BME280;50264;52.088;5.296;2023-03-22T02:27:50;100666.0;;;9.61;90.99
64023;BME280;50264;52.088;5.296;2023-03-22T02:32:01;100663.0;;;9.66;91.01
64023;BME280;50264;52.088;5.296;2023-03-22T02:34:52;100657.0;;;9.68;90.76
64023;BME280;50264;52.088;5.296;2023-03-22T02:41:04;100645.0;;;9.78;91.63
64023;BME280;50264;52.088;5.296;2023-03-22T02:42:54;100640.0;;;9.61;91.61
64023;BME280;50264;52.088;5.296;2023-03-22T02:44:39;100642.0;;;9.46;92.41
64023;BME280;50264;52.088;5.296;2023-03-22T02:46:21;100639.0;;;9.48;93.19
64023;BME280;50264;52.088;5.296;2023-03-22T02:49:46;100640.0;;;9.67;92.57
64023;BME280;50264;52.088;5.296;2023-03-22T02:51:32;100639.0;;;9.64;93.62
64023;BME280;50264;52.088;5.296;2023-03-22T02:53:15;100633.0;;;9.74;93.51
64023;BME280;50264;52.088;5.296;2023-03-22T02:54:55;100627.0;;;9.81;93.44
64023;BME280;50264;52.088;5.296;2023-03-22T02:56:40;100626.0;;;9.88;93.18
64023;BME280;50264;52.088;5.296;2023-03-22T03:00:01;100624.0;;;9.81;93.72
64023;BME280;50264;52.088;5.296;2023-03-22T03:01:43;100622.0;;;9.8;92.61
64023;BME280;50264;52.088;5.296;2023-03-22T03:03:23;100620.0;;;9.86;93.76
64023;BME280;50264;52.088;5.296;2023-03-22T03:05:03;100611.0;;;9.89;94.01
64023;BME280;50264;52.088;5.296;2023-03-22T03:08:21;100614.0;;;9.89;93.96
64023;BME280;50264;52.088;5.296;2023-03-22T03:09:58;100615.0;;;10.0;93.77
64023;BME280;50264;52.088;5.296;2023-03-22T03:11:34;100616.0;;;9.99;93.5
64023;BME280;50264;52.088;5.296;2023-03-22T03:14:48;100615.0;;;10.07;93.91
64023;BME280;50264;52.088;5.296;2023-03-22T03:16:28;100619.0;;;10.17;93.84
64023;BME280;50264;52.088;5.296;2023-03-22T03:18:15;100617.0;;;10.16;92.64
64023;BME280;50264;52.088;5.296;2023-03-22T03:20:03;100622.0;;;10.23;92.42
64023;BME280;50264;52.088;5.296;2023-03-22T03:21:54;100620.0;;;10.3;93.37
64023;BME280;50264;52.088;5.296;2023-03-22T03:25:26;100620.0;;;10.23;93.25
64023;BME280;50264;52.088;5.296;2023-03-22T03:27:12;100625.0;;;10.19;93.81
64023;BME280;50264;52.088;5.296;2023-03-22T03:28:56;100616.0;;;10.0;93.02
64023;BME280;50264;52.088;5.296;2023-03-22T03:30:38;100616.0;;;10.02;94.34
64023;BME280;50264;52.088;5.296;2023-03-22T03:32:22;100614.0;;;10.21;93.96
64023;BME280;50264;52.088;5.296;2023-03-22T03:35:50;100616.0;;;10.21;94.69
64023;BME280;50264;52.088;5.296;2023-03-22T03:37:33;100609.0;;;10.33;94.12
64023;BME280;50264;52.088;5.296;2023-03-22T03:39:13;100613.0;;;10.26;93.92
64023;BME280;50264;52.088;5.296;2023-03-22T03:40:53;100617.0;;;10.29;93.98
64023;BME280;50264;52.088;5.296;2023-03-22T03:44:12;100608.0;;;10.28;94.23
64023;BME280;50264;52.088;5.296;2023-03-22T03:45:50;100608.0;;;10.23;94.49
64023;BME280;50264;52.088;5.296;2023-03-22T03:47:27;100612.0;;;10.25;94.79
64023;BME280;50264;52.088;5.296;2023-03-22T03:49:04;100616.0;;;10.25;94.02
64023;BME280;50264;52.088;5.296;2023-03-22T03:52:20;100612.0;;;10.32;93.55
64023;BME280;50264;52.088;5.296;2023-03-22T03:53:56;100610.0;;;10.39;94.28
64023;BME280;50264;52.088;5.296;2023-03-22T03:55:32;100611.0;;;10.35;94.44
64023;BME280;50264;52.088;5.296;2023-03-22T03:58:44;100605.0;;;10.36;93.71
64023;BME280;50264;52.088;5.296;2023-03-22T04:00:20;100608.0;;;10.35;92.97
64023;BME280;50264;52.088;5.296;2023-03-22T04:01:57;100606.0;;;10.35;93.88
64023;BME280;50264;52.088;5.296;2023-03-22T04:03:34;100606.0;;;10.45;93.67
64023;BME280;50264;52.088;5.296;2023-03-22T04:06:48;100603.0;;;10.35;93.56
64023;BME280;50264;52.088;5.296;2023-03-22T04:08:24;100605.0;;;10.45;93.97
64023;BME280;50264;52.088;5.296;2023-03-22T04:10:00;100612.0;;;10.42;93.03
64023;BME280;50264;52.088;5.296;2023-03-22T04:13:12;100614.0;;;10.54;93.57
64023;BME280;50264;52.088;5.296;2023-03-22T04:14:48;100610.0;;;10.5;93.51
64023;BME280;50264;52.088;5.296;2023-03-22T04:16:24;100607.0;;;10.58;93.33
64023;BME280;50264;52.088;5.296;2023-03-22T04:19:37;100603.0;;;10.57;93.43
64023;BME280;50264;52.088;5.296;2023-03-22T04:21:13;100599.0;;;10.53;92.98
64023;BME280;50264;52.088;5.296;2023-03-22T04:22:49;100601.0;;;10.6;93.21
64023;BME280;50264;52.088;5.296;2023-03-22T04:24:26;100593.0;;;10.58;93.19
64023;BME280;50264;52.088;5.296;2023-03-22T04:27:40;100598.0;;;10.61;92.94
64023;BME280;50264;52.088;5.296;2023-03-22T04:29:17;100590.0;;;10.64;92.81
64023;BME280;50264;52.088;5.296;2023-03-22T04:30:54;100589.0;;;10.66;92.89
64023;BME280;50264;52.088;5.296;2023-03-22T04:34:07;100581.0;;;10.71;92.59
64023;BME280;50264;52.088;5.296;2023-03-22T04:35:43;100588.0;;;10.61;92.93
64023;BME280;50264;52.088;5.296;2023-03-22T04:37:20;100577.0;;;10.71;92.49
64023;BME280;50264;52.088;5.296;2023-03-22T04:40:32;100576.0;;;10.64;92.37
64023;BME280;50264;52.088;5.296;2023-03-22T04:42:09;100569.0;;;10.75;91.88
64023;BME280;50264;52.088;5.296;2023-03-22T04:43:46;100574.0;;;10.83;91.43
64023;BME280;50264;52.088;5.296;2023-03-22T04:45:22;100574.0;;;10.64;92.17
64023;BME280;50264;52.088;5.296;2023-03-22T04:48:35;100578.0;;;10.47;92.53
64023;BME280;50264;52.088;5.296;2023-03-22T04:50:12;100581.0;;;10.6;92.53
64023;BME280;50264;52.088;5.296;2023-03-22T04:51:48;100576.0;;;10.67;92.14
64023;BME280;50264;52.088;5.296;2023-03-22T04:55:01;100572.0;;;10.72;91.71
64023;BME280;50264;52.088;5.296;2023-03-22T04:56:37;100570.0;;;10.81;91.33
64023;BME280;50264;52.088;5.296;2023-03-22T04:58:13;100575.0;;;10.84;91.04
64023;BME280;50264;52.088;5.296;2023-03-22T05:01:25;100569.0;;;10.87;90.99
64023;BME280;50264;52.088;5.296;2023-03-22T05:03:02;100566.0;;;10.75;91.23
64023;BME280;50264;52.088;5.296;2023-03-22T05:04:38;100563.0;;;10.78;91.11
64023;BME280;50264;52.088;5.296;2023-03-22T05:07:51;100557.0;;;10.8;90.95
64023;BME280;50264;52.088;5.296;2023-03-22T05:09:27;100561.0;;;10.77;91.06
64023;BME280;50264;52.088;5.296;2023-03-22T05:11:05;100558.0;;;10.84;90.61
64023;BME280;50264;52.088;5.296;2023-03-22T05:12:42;100560.0;;;10.84;90.44
64023;BME280;50264;52.088;5.296;2023-03-22T05:15:54;100557.0;;;10.64;91.29
64023;BME280;50264;52.088;5.296;2023-03-22T05:17:30;100553.0;;;10.55;91.73
64023;BME280;50264;52.088;5.296;2023-03-22T05:19:07;100556.0;;;10.51;91.96
64023;BME280;50264;52.088;5.296;2023-03-22T05:22:19;100553.0;;;10.59;91.3
64023;BME280;50264;52.088;5.296;2023-03-22T05:23:56;100558.0;;;10.53;91.35
64023;BME280;50264;52.088;5.296;2023-03-22T05:25:32;100558.0;;;10.53;91.46
64023;BME280;50264;52.088;5.296;2023-03-22T05:28:44;100560.0;;;10.61;90.88
64023;BME280;50264;52.088;5.296;2023-03-22T05:30:20;100561.0;;;10.47;91.62
64023;BME280;50264;52.088;5.296;2023-03-22T05:31:57;100553.0;;;10.56;91.36
64023;BME280;50264;52.088;5.296;2023-03-22T05:33:33;100545.0;;;10.5;91.35
64023;BME280;50264;52.088;5.296;2023-03-22T05:36:46;100547.0;;;10.5;91.04
64023;BME280;50264;52.088;5.296;2023-03-22T05:38:22;100543.0;;;10.48;91.3
64023;BME280;50264;52.088;5.296;2023-03-22T05:39:59;100542.0;;;10.43;91.59
64023;BME280;50264;52.088;5.296;2023-03-22T05:43:11;100542.0;;;10.45;91.19
64023;BME280;50264;52.088;5.296;2023-03-22T05:44:47;100546.0;;;10.45;91.31
64023;BME280;50264;52.088;5.296;2023-03-22T05:46:23;100552.0;;;10.4;91.52
64023;BME280;50264;52.088;5.296;2023-03-22T05:49:35;100546.0;;;10.45;91.04
64023;BME280;50264;52.088;5.296;2023-03-22T05:51:13;100541.0;;;10.49;91.06
64023;BME280;50264;52.088;5.296;2023-03-22T05:52:50;100537.0;;;10.5;91.08
64023;BME280;50264;52.088;5.296;2023-03-22T05:54:25;100531.0;;;10.46;91.02
64023;BME280;50264;52.088;5.296;2023-03-22T05:57:38;100527.0;;;10.47;91.25
64023;BME280;50264;52.088;5.296;2023-03-22T05:59:15;100531.0;;;10.48;91.13
64023;BME280;50264;52.088;5.296;2023-03-22T06:00:51;100530.0;;;10.48;91.05
64023;BME280;50264;52.088;5.296;2023-03-22T06:04:03;100530.0;;;10.47;91.22
64023;BME280;50264;52.088;5.296;2023-03-22T06:05:39;100530.0;;;10.42;91.23
64023;BME280;50264;52.088;5.296;2023-03-22T06:07:16;100535.0;;;10.51;90.83
64023;BME280;50264;52.088;5.296;2023-03-22T06:10:28;100532.0;;;10.53;90.48
64023;BME280;50264;52.088;5.296;2023-03-22T06:12:05;100530.0;;;10.55;90.12
64023;BME280;50264;52.088;5.296;2023-03-22T06:13:41;100534.0;;;10.57;90.13
64023;BME280;50264;52.088;5.296;2023-03-22T06:15:18;100537.0;;;10.55;89.96
64023;BME280;50264;52.088;5.296;2023-03-22T06:18:30;100537.0;;;10.55;89.82
64023;BME280;50264;52.088;5.296;2023-03-22T06:20:08;100536.0;;;10.45;90.27
64023;BME280;50264;52.088;5.296;2023-03-22T06:21:46;100532.0;;;10.5;90.62
64023;BME280;50264;52.088;5.296;2023-03-22T06:24:59;100530.0;;;10.39;90.16
64023;BME280;50264;52.088;5.296;2023-03-22T06:26:36;100533.0;;;10.49;90.37
64023;BME280;50264;52.088;5.296;2023-03-22T06:28:12;100531.0;;;10.51;90.35
64023;BME280;50264;52.088;5.296;2023-03-22T06:31:23;100534.0;;;10.46;90.26
64023;BME280;50264;52.088;5.296;2023-03-22T06:33:00;100539.0;;;10.47;90.62
64023;BME280;50264;52.088;5.296;2023-03-22T06:34:36;100534.0;;;10.6;90.34
64023;BME280;50264;52.088;5.296;2023-03-22T06:37:48;100535.0;;;10.68;89.12
64023;BME280;50264;52.088;5.296;2023-03-22T06:39:25;100533.0;;;10.69;89.16
64023;BME280;50264;52.088;5.296;2023-03-22T06:41:01;100531.0;;;10.77;89.48
64023;BME280;50264;52.088;5.296;2023-03-22T06:42:37;100534.0;;;10.76;88.56
64023;BME280;50264;52.088;5.296;2023-03-22T06:45:50;100536.0;;;10.85;87.85
64023;BME280;50264;52.088;5.296;2023-03-22T06:47:27;100535.0;;;10.87;87.9
64023;BME280;50264;52.088;5.296;2023-03-22T06:49:03;100539.0;;;10.94;87.46
64023;BME280;50264;52.088;5.296;2023-03-22T06:52:16;100542.0;;;10.9;87.4
64023;BME280;50264;52.088;5.296;2023-03-22T06:53:52;100537.0;;;11.03;86.91
64023;BME280;50264;52.088;5.296;2023-03-22T06:55:28;100538.0;;;11.02;87.17
64023;BME280;50264;52.088;5.296;2023-03-22T06:58:40;100538.0;;;11.05;86.91
64023;BME280;50264;52.088;5.296;2023-03-22T07:00:17;100541.0;;;11.06;87.53
64023;BME280;50264;52.088;5.296;2023-03-22T07:01:54;100537.0;;;11.16;87.06
64023;BME280;50264;52.088;5.296;2023-03-22T07:03:30;100544.0;;;11.19;86.56
64023;BME280;50264;52.088;5.296;2023-03-22T07:06:43;100533.0;;;11.17;85.59
64023;BME280;50264;52.088;5.296;2023-03-22T07:08:19;100549.0;;;11.26;85.56
64023;BME280;50264;52.088;5.296;2023-03-22T07:09:56;100531.0;;;11.23;85.58
64023;BME280;50264;52.088;5.296;2023-03-22T07:13:08;100538.0;;;11.27;85.71
64023;BME280;50264;52.088;5.296;2023-03-22T07:14:44;100536.0;;;11.28;85.67
64023;BME280;50264;52.088;5.296;2023-03-22T07:16:20;100537.0;;;11.19;86.23
64023;BME280;50264;52.088;5.296;2023-03-22T07:19:33;100537.0;;;11.18;85.72
64023;BME280;50264;52.088;5.296;2023-03-22T07:21:09;100536.0;;;11.2;85.85
64023;BME280;50264;52.088;5.296;2023-03-22T07:22:45;100547.0;;;11.21;85.78
64023;BME280;50264;52.088;5.296;2023-03-22T07:24:20;100536.0;;;11.26;86.19
64023;BME280;50264;52.088;5.296;2023-03-22T07:27:32;100536.0;;;11.16;85.2
64023;BME280;50264;52.088;5.296;2023-03-22T07:29:08;100530.0;;;11.17;85.52
64023;BME280;50264;52.088;5.296;2023-03-22T07:30:45;100535.0;;;11.08;85.31
64023;BME280;50264;52.088;5.296;2023-03-22T07:33:57;100524.0;;;11.09;84.8
64023;BME280;50264;52.088;5.296;2023-03-22T07:35:34;100528.0;;;11.13;84.55
64023;BME280;50264;52.088;5.296;2023-03-22T07:37:10;100533.0;;;11.22;85.02
64023;BME280;50264;52.088;5.296;2023-03-22T07:40:23;100531.0;;;11.34;85.11
64023;BME280;50264;52.088;5.296;2023-03-22T07:42:00;100525.0;;;11.22;84.49
64023;BME280;50264;52.088;5.296;2023-03-22T07:43:36;100520.0;;;11.25;85.06
64023;BME280;50264;52.088;5.296;2023-03-22T07:46:48;100519.0;;;11.32;84.31
64023;BME280;50264;52.088;5.296;2023-03-22T07:48:24;100520.0;;;11.37;84.12
64023;BME280;50264;52.088;5.296;2023-03-22T07:50:00;100524.0;;;11.51;83.75
64023;BME280;50264;52.088;5.296;2023-03-22T07:51:37;100526.0;;;11.52;82.79
64023;BME280;50264;52.088;5.296;2023-03-22T07:54:49;100531.0;;;11.56;82.79
64023;BME280;50264;52.088;5.296;2023-03-22T07:56:26;100530.0;;;11.7;83.38
64023;BME280;50264;52.088;5.296;2023-03-22T07:58:02;100530.0;;;11.69;82.33
64023;BME280;50264;52.088;5.296;2023-03-22T08:01:15;100519.0;;;11.68;82.62
64023;BME280;50264;52.088;5.296;2023-03-22T08:02:51;100528.0;;;11.7;82.72
64023;BME280;50264;52.088;5.296;2023-03-22T08:04:27;100523.0;;;11.75;82.26
64023;BME280;50264;52.088;5.296;2023-03-22T08:07:43;100527.0;;;11.72;81.91
64023;BME280;50264;52.088;5.296;2023-03-22T08:09:19;100520.0;;;11.84;82.59
64023;BME280;50264;52.088;5.296;2023-03-22T08:10:55;100528.0;;;11.94;83.4
64023;BME280;50264;52.088;5.296;2023-03-22T08:12:31;100531.0;;;12.03;80.37
64023;BME280;50264;52.088;5.296;2023-03-22T08:15:44;100533.0;;;11.98;80.3
64023;BME280;50264;52.088;5.296;2023-03-22T08:17:20;100524.0;;;11.96;81.27
64023;BME280;50264;52.088;5.296;2023-03-22T08:18:57;100528.0;;;11.98;80.31
64023;BME280;50264;52.088;5.296;2023-03-22T08:22:09;100527.0;;;12.01;80.28
64023;BME280;50264;52.088;5.296;2023-03-22T08:23:45;100528.0;;;11.93;80.14
64023;BME280;50264;52.088;5.296;2023-03-22T08:25:21;100528.0;;;11.86;81.24
64023;BME280;50264;52.088;5.296;2023-03-22T08:28:33;100536.0;;;11.81;80.91
64023;BME280;50264;52.088;5.296;2023-03-22T08:30:10;100531.0;;;11.89;80.95
64023;BME280;50264;52.088;5.296;2023-03-22T08:31:46;100526.0;;;11.82;81.73
64023;BME280;50264;52.088;5.296;2023-03-22T08:33:23;100526.0;;;11.91;82.39
64023;BME280;50264;52.088;5.296;2023-03-22T08:36:36;100526.0;;;11.94;81.55
64023;BME280;50264;52.088;5.296;2023-03-22T08:38:12;100528.0;;;11.81;80.86
64023;BME280;50264;52.088;5.296;2023-03-22T08:39:48;100523.0;;;11.91;80.45
64023;BME280;50264;52.088;5.296;2023-03-22T08:43:02;100520.0;;;12.08;82.76
64023;BME280;50264;52.088;5.296;2023-03-22T08:44:39;100515.0;;;12.22;80.72
64023;BME280;50264;52.088;5.296;2023-03-22T08:46:15;100524.0;;;12.04;80.03
64023;BME280;50264;52.088;5.296;2023-03-22T08:49:27;100519.0;;;12.08;80.98
64023;BME280;50264;52.088;5.296;2023-03-22T08:51:04;100513.0;;;12.23;80.88
64023;BME280;50264;52.088;5.296;2023-03-22T08:52:40;100531.0;;;12.08;78.94
64023;BME280;50264;52.088;5.296;2023-03-22T08:55:53;100514.0;;;12.04;79.3
64023;BME280;50264;52.088;5.296;2023-03-22T08:57:29;100523.0;;;12.16;79.94
64023;BME280;50264;52.088;5.296;2023-03-22T08:59:06;100530.0;;;12.1;78.5
64023;BME280;50264;52.088;5.296;2023-03-22T09:00:43;100530.0;;;12.1;79.36
64023;BME280;50264;52.088;5.296;2023-03-22T09:03:55;100525.0;;;12.07;79.05
64023;BME280;50264;52.088;5.296;2023-03-22T09:05:31;100519.0;;;12.19;79.3
64023;BME280;50264;52.088;5.296;2023-03-22T09:07:08;100526.0;;;12.3;80.11
64023;BME280;50264;52.088;5.296;2023-03-22T09:10:20;100525.0;;;12.21;78.66
64023;BME280;50264;52.088;5.296;2023-03-22T09:11:56;100524.0;;;12.26;79.36
64023;BME280;50264;52.088;5.296;2023-03-22T09:13:32;100522.0;;;12.12;78.12
64023;BME280;50264;52.088;5.296;2023-03-22T09:16:46;100530.0;;;11.99;79.44
64023;BME280;50264;52.088;5.296;2023-03-22T09:18:23;100530.0;;;11.9;78.94
64023;BME280;50264;52.088;5.296;2023-03-22T09:20:00;100538.0;;;11.91;79.36
64023;BME280;50264;52.088;5.296;2023-03-22T09:21:36;100533.0;;;11.79;80.7
64023;BME280;50264;52.088;5.296;2023-03-22T09:24:49;100528.0;;;11.85;80.16
64023;BME280;50264;52.088;5.296;2023-03-22T09:26:25;100534.0;;;11.81;81.0
64023;BME280;50264;52.088;5.296;2023-03-22T09:28:01;100539.0;;;11.77;81.96
64023;BME280;50264;52.088;5.296;2023-03-22T09:31:16;100532.0;;;11.79;83.65
64023;BME280;50264;52.088;5.296;2023-03-22T09:32:52;100539.0;;;11.55;82.8
64023;BME280;50264;52.088;5.296;2023-03-22T09:34:29;100535.0;;;11.57;83.43
64023;BME280;50264;52.088;5.296;2023-03-22T09:37:42;100523.0;;;11.49;84.37
64023;BME280;50264;52.088;5.296;2023-03-22T09:39:18;100530.0;;;11.56;84.41
64023;BME280;50264;52.088;5.296;2023-03-22T09:40:56;100524.0;;;11.45;85.12
64023;BME280;50264;52.088;5.296;2023-03-22T09:42:38;100536.0;;;11.45;87.46
64023;BME280;50264;52.088;5.296;2023-03-22T09:46:02;100525.0;;;11.42;87.13
64023;BME280;50264;52.088;5.296;2023-03-22T09:47:47;100527.0;;;11.36;87.93
64023;BME280;50264;52.088;5.296;2023-03-22T09:49:29;100530.0;;;11.31;87.73
64023;BME280;50264;52.088;5.296;2023-03-22T09:51:18;100535.0;;;11.21;88.74
64023;BME280;50264;52.088;5.296;2023-03-22T09:52:59;100530.0;;;11.23;89.73
64023;BME280;50264;52.088;5.296;2023-03-22T09:56:19;100530.0;;;11.09;90.56
64023;BME280;50264;52.088;5.296;2023-03-22T09:58:02;100520.0;;;11.07;91.7
64023;BME280;50264;52.088;5.296;2023-03-22T09:59:47;100527.0;;;11.1;90.95
64023;BME280;50264;52.088;5.296;2023-03-22T10:01:29;100527.0;;;11.09;90.46
64023;BME280;50264;52.088;5.296;2023-03-22T10:05:07;100523.0;;;11.09;91.14
64023;BME280;50264;52.088;5.296;2023-03-22T10:08:37;100516.0;;;11.11;91.45
64023;BME280;50264;52.088;5.296;2023-03-22T10:10:20;100518.0;;;11.04;91.7
64023;BME280;50264;52.088;5.296;2023-03-22T10:12:00;100516.0;;;11.16;91.35
64023;BME280;50264;52.088;5.296;2023-03-22T10:15:35;100515.0;;;11.19;90.97
64023;BME280;50264;52.088;5.296;2023-03-22T10:17:15;100509.0;;;11.19;92.16
64023;BME280;50264;52.088;5.296;2023-03-22T10:18:58;100508.0;;;11.12;92.33
64023;BME280;50264;52.088;5.296;2023-03-22T10:20:41;100515.0;;;11.06;93.71
64023;BME280;50264;52.088;5.296;2023-03-22T10:22:24;100512.0;;;11.13;93.28
64023;BME280;50264;52.088;5.296;2023-03-22T10:25:51;100511.0;;;11.09;93.82
64023;BME280;50264;52.088;5.296;2023-03-22T10:27:30;100514.0;;;11.13;93.49
64023;BME280;50264;52.088;5.296;2023-03-22T10:29:12;100510.0;;;11.17;94.1
64023;BME280;50264;52.088;5.296;2023-03-22T10:30:53;100510.0;;;11.2;94.44
64023;BME280;50264;52.088;5.296;2023-03-22T10:34:20;100519.0;;;11.27;94.91
64023;BME280;50264;52.088;5.296;2023-03-22T10:35:57;100513.0;;;11.18;93.23
64023;BME280;50264;52.088;5.296;2023-03-22T10:37:36;100516.0;;;11.18;94.01
64023;BME280;50264;52.088;5.296;2023-03-22T10:39:26;100516.0;;;11.21;92.81
64023;BME280;50264;52.088;5.296;2023-03-22T10:41:09;100525.0;;;11.1;92.97
64023;BME280;50264;52.088;5.296;2023-03-22T10:44:31;100519.0;;;10.98;94.61
64023;BME280;50264;52.088;5.296;2023-03-22T10:46:13;100531.0;;;10.97;94.69
64023;BME280;50264;52.088;5.296;2023-03-22T10:47:56;100525.0;;;10.96;94.53
64023;BME280;50264;52.088;5.296;2023-03-22T10:49:37;100516.0;;;11.07;95.6
64023;BME280;50264;52.088;5.296;2023-03-22T10:53:04;100508.0;;;11.0;95.8
64023;BME280;50264;52.088;5.296;2023-03-22T10:54:42;100511.0;;;11.07;97.09
64023;BME280;50264;52.088;5.296;2023-03-22T10:56:18;100512.0;;;11.03;96.04
64023;BME280;50264;52.088;5.296;2023-03-22T10:58:00;100502.0;;;11.01;95.93
64023;BME280;50264;52.088;5.296;2023-03-22T11:01:25;100507.0;;;10.99;96.9
64023;BME280;50264;52.088;5.296;2023-03-22T11:03:04;100505.0;;;11.1;96.62
64023;BME280;50264;52.088;5.296;2023-03-22T11:04:46;100506.0;;;10.97;96.4
64023;BME280;50264;52.088;5.296;2023-03-22T11:06:24;100507.0;;;11.0;96.58
64023;BME280;50264;52.088;5.296;2023-03-22T11:09:38;100496.0;;;11.01;96.15
64023;BME280;50264;52.088;5.296;2023-03-22T11:11:18;100505.0;;;11.22;97.43
64023;BME280;50264;52.088;5.296;2023-03-22T11:13:10;100502.0;;;11.19;95.56
64023;BME280;50264;52.088;5.296;2023-03-22T11:14:49;100495.0;;;11.25;96.62
64023;BME280;50264;52.088;5.296;2023-03-22T11:18:07;100512.0;;;11.18;94.41
64023;BME280;50264;52.088;5.296;2023-03-22T11:19:51;100505.0;;;11.23;95.26
64023;BME280;50264;52.088;5.296;2023-03-22T11:21:30;100505.0;;;11.26;95.14
64023;BME280;50264;52.088;5.296;2023-03-22T11:23:11;100499.0;;;11.22;95.53